createdAt,value
2017-10-23T00:00:51.245Z,8.30
2017-10-23T00:03:17.315Z,8.32
2017-10-23T00:05:43.378Z,8.07
2017-10-23T00:08:09.462Z,8.10
2017-10-23T00:10:35.491Z,8.22
2017-10-23T00:13:01.564Z,8.20
2017-10-23T00:15:27.850Z,8.26
2017-10-23T00:17:53.888Z,8.25
2017-10-23T00:20:20.023Z,8.32
2017-10-23T00:22:46.057Z,8.12
2017-10-23T00:25:12.181Z,8.20
2017-10-23T00:27:38.276Z,8.16
2017-10-23T00:30:04.366Z,8.22
2017-10-23T00:32:30.469Z,8.24
2017-10-23T00:34:56.554Z,8.24
2017-10-23T00:37:22.638Z,8.19
2017-10-23T00:39:48.723Z,8.25
2017-10-23T00:42:14.719Z,8.32
2017-10-23T00:44:40.851Z,8.00
2017-10-23T00:47:06.934Z,7.90
2017-10-23T00:49:32.994Z,7.79
2017-10-23T00:51:59.102Z,8.10
2017-10-23T00:54:25.119Z,7.99
2017-10-23T00:56:51.154Z,7.99
2017-10-23T00:59:17.210Z,7.94
2017-10-23T01:01:43.320Z,8.01
2017-10-23T01:04:09.419Z,8.07
2017-10-23T01:06:35.518Z,8.13
2017-10-23T01:09:01.559Z,8.17
2017-10-23T01:11:27.658Z,7.91
2017-10-23T01:13:53.777Z,8.12
2017-10-23T01:16:19.933Z,8.19
2017-10-23T01:18:45.983Z,8.20
2017-10-23T01:21:12.051Z,8.24
2017-10-23T01:23:38.174Z,8.22
2017-10-23T01:26:04.220Z,8.08
2017-10-23T01:28:30.298Z,8.22
2017-10-23T01:30:56.344Z,8.11
2017-10-23T01:33:22.394Z,8.09
2017-10-23T01:35:48.494Z,8.15
2017-10-23T01:38:14.490Z,7.89
2017-10-23T01:40:40.540Z,8.05
2017-10-23T01:43:06.606Z,8.07
2017-10-23T01:45:32.631Z,8.02
2017-10-23T01:47:58.722Z,8.06
2017-10-23T01:50:24.772Z,7.91
2017-10-23T01:52:50.954Z,7.98
2017-10-23T01:55:17.014Z,8.03
2017-10-23T01:57:43.079Z,8.10
2017-10-23T02:00:09.101Z,8.08
2017-10-23T02:02:35.185Z,7.99
2017-10-23T02:05:01.315Z,7.99
2017-10-23T02:07:27.383Z,7.90
2017-10-23T02:09:53.482Z,7.93
2017-10-23T02:12:19.531Z,8.12
2017-10-23T02:14:45.588Z,8.02
2017-10-23T02:17:11.716Z,8.04
2017-10-23T02:19:37.751Z,8.11
2017-10-23T02:22:03.862Z,8.07
2017-10-23T02:24:29.966Z,8.15
2017-10-23T02:26:56.061Z,8.05
2017-10-23T02:29:22.143Z,7.91
2017-10-23T02:31:48.162Z,7.98
2017-10-23T02:34:14.251Z,7.82
2017-10-23T02:36:40.327Z,7.85
2017-10-23T02:39:06.430Z,8.01
2017-10-23T02:41:32.555Z,7.93
2017-10-23T02:43:58.618Z,8.00
2017-10-23T02:46:24.687Z,7.88
2017-10-23T02:48:50.877Z,7.93
2017-10-23T02:51:16.964Z,7.87
2017-10-23T02:53:43.127Z,7.89
2017-10-23T02:56:09.199Z,7.93
2017-10-23T02:58:35.252Z,7.99
2017-10-23T03:01:01.366Z,8.02
2017-10-23T03:03:27.466Z,8.02
2017-10-23T03:05:53.535Z,8.02
2017-10-23T03:08:19.547Z,8.03
2017-10-23T03:10:45.595Z,7.98
2017-10-23T03:13:11.754Z,8.03
2017-10-23T03:15:37.786Z,8.00
2017-10-23T03:18:03.855Z,8.04
2017-10-23T03:20:29.939Z,7.92
2017-10-23T03:22:55.988Z,7.83
2017-10-23T03:25:22.086Z,7.71
2017-10-23T03:27:48.133Z,7.80
2017-10-23T03:30:14.203Z,7.78
2017-10-23T03:32:40.256Z,7.62
2017-10-23T03:35:06.324Z,7.69
2017-10-23T03:37:32.521Z,7.79
2017-10-23T03:39:58.599Z,7.74
2017-10-23T03:42:24.704Z,7.74
2017-10-23T03:44:50.814Z,7.80
2017-10-23T03:47:16.834Z,7.82
2017-10-23T03:49:42.886Z,7.60
2017-10-23T03:52:08.925Z,7.74
2017-10-23T03:54:34.964Z,7.67
2017-10-23T03:57:01.011Z,7.53
2017-10-23T03:59:27.030Z,7.47
2017-10-23T04:01:53.133Z,7.48
2017-10-23T04:04:19.193Z,7.58
2017-10-23T04:06:45.323Z,7.51
2017-10-23T04:09:11.386Z,7.41
2017-10-23T04:11:37.431Z,7.49
2017-10-23T04:14:03.504Z,7.46
2017-10-23T04:16:29.583Z,7.49
2017-10-23T04:18:55.638Z,7.78
2017-10-23T04:21:22.040Z,8.00
2017-10-23T04:23:48.107Z,7.98
2017-10-23T04:26:14.115Z,7.87
2017-10-23T04:28:40.490Z,7.78
2017-10-23T04:31:06.515Z,7.88
2017-10-23T04:33:32.551Z,7.79
2017-10-23T04:35:58.610Z,7.81
2017-10-23T04:38:24.635Z,7.81
2017-10-23T04:40:51.090Z,7.78
2017-10-23T04:43:17.149Z,7.80
2017-10-23T04:45:43.215Z,7.77
2017-10-23T04:48:09.299Z,7.84
2017-10-23T04:50:35.341Z,7.83
2017-10-23T04:53:01.735Z,7.83
2017-10-23T04:55:27.786Z,7.78
2017-10-23T04:57:53.808Z,7.65
2017-10-23T05:00:19.983Z,7.60
2017-10-23T05:02:46.088Z,7.55
2017-10-23T05:05:12.497Z,7.67
2017-10-23T05:07:38.546Z,7.68
2017-10-23T05:10:04.627Z,7.62
2017-10-23T05:12:30.778Z,7.80
2017-10-23T05:14:56.899Z,7.89
2017-10-23T05:17:23.339Z,7.76
2017-10-23T05:19:49.396Z,7.75
2017-10-23T05:22:15.524Z,7.77
2017-10-23T05:24:41.931Z,7.93
2017-10-23T05:27:07.991Z,7.71
2017-10-23T05:29:34.047Z,7.81
2017-10-23T05:32:00.163Z,7.85
2017-10-23T05:34:26.155Z,7.79
2017-10-23T05:36:52.651Z,7.83
2017-10-23T05:39:18.695Z,7.78
2017-10-23T05:41:44.734Z,7.79
2017-10-23T05:44:10.837Z,7.84
2017-10-23T05:46:36.881Z,7.79
2017-10-23T05:49:03.300Z,7.81
2017-10-23T05:51:29.362Z,7.78
2017-10-23T05:53:55.382Z,7.69
2017-10-23T05:56:21.902Z,7.62
2017-10-23T05:58:47.942Z,7.52
2017-10-23T06:01:14.094Z,7.51
2017-10-23T06:03:40.485Z,7.52
2017-10-23T06:06:06.531Z,7.50
2017-10-23T06:08:32.712Z,7.52
2017-10-23T06:10:58.766Z,7.48
2017-10-23T06:13:24.870Z,7.54
2017-10-23T06:15:51.318Z,7.48
2017-10-23T06:18:17.438Z,7.58
2017-10-23T06:20:43.523Z,7.62
2017-10-23T06:23:09.697Z,7.50
2017-10-23T06:25:35.755Z,7.48
2017-10-23T06:28:02.266Z,7.61
2017-10-23T06:30:28.315Z,7.69
2017-10-23T06:32:54.341Z,7.74
2017-10-23T06:35:20.463Z,7.75
2017-10-23T06:37:46.477Z,7.77
2017-10-23T06:40:12.986Z,7.73
2017-10-23T06:42:39.056Z,7.72
2017-10-23T06:45:05.108Z,7.75
2017-10-23T06:47:31.139Z,7.70
2017-10-23T06:49:57.176Z,7.73
2017-10-23T06:52:23.522Z,7.77
2017-10-23T06:54:49.625Z,7.76
2017-10-23T06:57:15.686Z,7.76
2017-10-23T06:59:42.283Z,7.81
2017-10-23T07:02:08.406Z,7.80
2017-10-23T07:04:34.523Z,7.86
2017-10-23T07:07:01.026Z,7.80
2017-10-23T07:09:27.136Z,7.79
2017-10-23T07:11:53.170Z,7.81
2017-10-23T07:14:19.594Z,7.86
2017-10-23T07:16:45.687Z,7.88
2017-10-23T07:19:11.746Z,7.89
2017-10-23T07:21:38.263Z,7.95
2017-10-23T07:24:04.314Z,7.77
2017-10-23T07:26:30.426Z,7.84
2017-10-23T07:28:56.871Z,7.81
2017-10-23T07:31:22.935Z,7.99
2017-10-23T07:33:49.042Z,8.07
2017-10-23T07:36:15.531Z,8.02
2017-10-23T07:38:41.615Z,7.92
2017-10-23T07:41:08.343Z,8.00
2017-10-23T07:43:34.544Z,8.07
2017-10-23T07:46:00.631Z,7.97
2017-10-23T07:48:27.138Z,8.11
2017-10-23T07:50:53.222Z,8.11
2017-10-23T07:53:19.302Z,8.12
2017-10-23T07:55:45.812Z,8.13
2017-10-23T07:58:11.923Z,8.11
2017-10-23T08:00:38.003Z,8.20
2017-10-23T08:03:11.579Z,8.25
2017-10-23T08:05:37.667Z,8.22
2017-10-23T08:08:03.701Z,8.18
2017-10-23T08:10:29.799Z,8.24
2017-10-23T08:12:55.858Z,8.23
2017-10-23T08:15:22.315Z,8.14
2017-10-23T08:17:48.478Z,8.33
2017-10-23T08:20:14.615Z,8.27
2017-10-23T08:22:41.114Z,8.27
2017-10-23T08:25:07.178Z,8.25
2017-10-23T08:27:33.254Z,8.22
2017-10-23T08:29:59.338Z,8.18
2017-10-23T08:32:25.468Z,8.16
2017-10-23T08:34:51.973Z,8.16
2017-10-23T08:37:18.127Z,8.32
2017-10-23T08:39:44.202Z,8.36
2017-10-23T08:42:10.317Z,8.41
2017-10-23T08:44:36.408Z,8.43
2017-10-23T08:47:02.895Z,8.47
2017-10-23T08:49:29.011Z,8.38
2017-10-23T08:51:55.083Z,8.52
2017-10-23T08:54:21.154Z,8.56
2017-10-23T08:56:47.219Z,8.52
2017-10-23T08:59:13.652Z,8.44
2017-10-23T09:01:39.748Z,8.57
2017-10-23T09:04:05.819Z,8.59
2017-10-23T09:06:32.233Z,8.49
2017-10-23T09:08:58.339Z,8.69
2017-10-23T09:11:24.374Z,8.89
2017-10-23T09:13:50.529Z,8.88
2017-10-23T09:16:16.626Z,8.89
2017-10-23T09:18:43.044Z,9.04
2017-10-23T09:21:09.209Z,9.02
2017-10-23T09:23:35.370Z,9.10
2017-10-23T09:26:01.858Z,8.69
2017-10-23T09:28:27.990Z,8.77
2017-10-23T09:30:54.095Z,8.73
2017-10-23T09:33:20.130Z,8.92
2017-10-23T09:35:46.173Z,8.76
2017-10-23T09:38:12.710Z,8.85
2017-10-23T09:40:38.810Z,8.80
2017-10-23T09:43:04.883Z,8.96
2017-10-23T09:45:31.271Z,8.83
2017-10-23T09:47:57.374Z,8.82
2017-10-23T09:50:23.461Z,8.81
2017-10-23T09:52:49.570Z,8.79
2017-10-23T09:55:15.639Z,8.90
2017-10-23T09:57:42.122Z,8.94
2017-10-23T10:00:08.227Z,8.90
2017-10-23T10:02:34.304Z,8.82
2017-10-23T10:05:00.435Z,8.89
2017-10-23T10:07:26.499Z,8.89
2017-10-23T10:09:52.975Z,8.78
2017-10-23T10:12:19.051Z,8.71
2017-10-23T10:14:45.154Z,8.72
2017-10-23T10:17:11.275Z,8.59
2017-10-23T10:19:37.369Z,8.77
2017-10-23T10:22:03.742Z,8.74
2017-10-23T10:24:29.839Z,8.81
2017-10-23T10:26:55.973Z,8.80
2017-10-23T10:29:22.398Z,8.73
2017-10-23T10:31:48.492Z,8.71
2017-10-23T10:34:14.526Z,8.58
2017-10-23T10:39:32.986Z,8.27
2017-10-23T10:41:59.483Z,8.60
2017-10-23T10:44:25.562Z,8.58
2017-10-23T10:46:51.639Z,8.46
2017-10-23T10:49:17.833Z,8.64
2017-10-23T10:51:43.907Z,8.67
2017-10-23T10:54:10.418Z,8.70
2017-10-23T10:56:36.527Z,8.83
2017-10-23T10:59:02.610Z,8.82
2017-10-23T11:01:28.732Z,8.82
2017-10-23T11:03:54.826Z,8.95
2017-10-23T11:06:21.239Z,8.92
2017-10-23T11:08:47.330Z,8.82
2017-10-23T11:11:13.480Z,8.84
2017-10-23T11:13:39.519Z,8.95
2017-10-23T11:16:05.606Z,8.98
2017-10-23T11:18:32.089Z,9.02
2017-10-23T11:20:58.274Z,8.99
2017-10-23T11:23:24.367Z,9.09
2017-10-23T11:25:50.448Z,9.12
2017-10-23T11:28:16.546Z,9.16
2017-10-23T11:30:43.034Z,9.13
2017-10-23T11:33:09.119Z,9.06
2017-10-23T11:35:35.202Z,9.18
2017-10-23T11:38:01.674Z,9.19
2017-10-23T11:40:27.742Z,9.21
2017-10-23T11:42:53.885Z,9.33
2017-10-23T11:45:20.082Z,9.38
2017-10-23T11:47:46.174Z,9.37
2017-10-23T11:50:12.729Z,9.16
2017-10-23T11:52:38.823Z,9.31
2017-10-23T11:55:04.894Z,9.44
2017-10-23T11:57:31.361Z,9.21
2017-10-23T11:59:57.462Z,9.48
2017-10-23T12:02:23.594Z,9.52
2017-10-23T12:04:49.693Z,9.50
2017-10-23T12:07:15.786Z,9.38
2017-10-23T12:09:42.310Z,9.54
2017-10-23T12:12:08.346Z,9.48
2017-10-23T12:14:34.391Z,9.42
2017-10-23T12:17:00.480Z,9.46
2017-10-23T12:19:26.592Z,9.39
2017-10-23T12:21:53.090Z,9.37
2017-10-23T12:24:19.183Z,9.32
2017-10-23T12:26:45.306Z,9.33
2017-10-23T12:29:11.706Z,9.47
2017-10-23T12:31:37.723Z,9.53
2017-10-23T12:34:03.775Z,9.44
2017-10-23T12:36:29.877Z,9.61
2017-10-23T12:38:55.995Z,9.64
2017-10-23T12:41:22.417Z,9.73
2017-10-23T12:43:48.589Z,9.83
2017-10-23T12:46:14.690Z,9.90
2017-10-23T12:48:41.077Z,9.93
2017-10-23T12:51:07.097Z,9.92
2017-10-23T12:53:33.203Z,10.15
2017-10-23T12:55:59.293Z,10.34
2017-10-23T12:58:25.360Z,10.46
2017-10-23T13:00:51.816Z,10.37
2017-10-23T13:03:17.883Z,10.38
2017-10-23T13:05:43.963Z,10.09
2017-10-23T13:08:10.109Z,10.05
2017-10-23T13:10:36.186Z,10.29
2017-10-23T13:13:02.570Z,10.28
2017-10-23T13:15:28.682Z,10.09
2017-10-23T13:17:54.774Z,10.22
2017-10-23T13:20:20.967Z,10.12
2017-10-23T13:22:47.093Z,10.06
2017-10-23T13:25:13.503Z,10.13
2017-10-23T13:27:39.590Z,10.16
2017-10-23T13:30:05.630Z,10.12
2017-10-23T13:32:31.723Z,10.21
2017-10-23T13:34:57.826Z,10.19
2017-10-23T13:37:24.338Z,10.19
2017-10-23T13:39:50.454Z,10.21
2017-10-23T13:42:16.498Z,10.16
2017-10-23T13:44:42.554Z,10.14
2017-10-23T13:47:08.686Z,10.25
2017-10-23T13:49:35.200Z,10.22
2017-10-23T13:52:01.299Z,10.01
2017-10-23T13:54:27.327Z,10.06
2017-10-23T13:56:53.394Z,10.01
2017-10-23T13:59:19.504Z,10.04
2017-10-23T14:01:45.941Z,10.15
2017-10-23T14:04:12.002Z,9.98
2017-10-23T14:06:38.154Z,9.90
2017-10-23T14:09:04.616Z,9.77
2017-10-23T14:11:30.713Z,9.74
2017-10-23T14:13:56.809Z,9.75
2017-10-23T14:16:23.320Z,9.66
2017-10-23T14:18:49.378Z,9.69
2017-10-23T14:21:15.378Z,9.85
2017-10-23T14:23:41.439Z,9.92
2017-10-23T14:26:07.466Z,10.05
2017-10-23T14:28:33.958Z,10.11
2017-10-23T14:30:59.986Z,10.11
2017-10-23T14:33:26.058Z,9.98
2017-10-23T14:35:52.470Z,9.67
2017-10-23T14:38:18.554Z,9.76
2017-10-23T14:40:44.628Z,9.65
2017-10-23T14:43:10.729Z,9.72
2017-10-23T14:45:36.787Z,9.78
2017-10-23T14:50:29.209Z,9.83
2017-10-23T14:52:55.261Z,9.78
2017-10-23T14:55:21.758Z,9.67
2017-10-23T14:57:47.858Z,9.46
2017-10-23T15:00:14.095Z,9.51
2017-10-23T15:02:40.255Z,9.48
2017-10-23T15:05:06.367Z,9.55
2017-10-23T15:07:32.537Z,9.60
2017-10-23T15:09:58.667Z,9.99
2017-10-23T15:12:24.821Z,10.53
2017-10-23T15:14:50.867Z,10.16
2017-10-23T15:17:16.989Z,10.24
2017-10-23T15:19:43.045Z,10.23
2017-10-23T15:22:09.159Z,10.10
2017-10-23T15:24:35.174Z,9.88
2017-10-23T15:27:01.223Z,9.86
2017-10-23T15:29:27.318Z,9.80
2017-10-23T15:31:53.390Z,9.69
2017-10-23T15:34:19.455Z,9.64
2017-10-23T15:36:45.534Z,9.55
2017-10-23T15:39:11.556Z,9.44
2017-10-23T15:41:37.626Z,9.52
2017-10-23T15:44:03.739Z,9.37
2017-10-23T15:46:29.853Z,9.46
2017-10-23T15:48:55.947Z,9.51
2017-10-23T15:51:22.075Z,9.52
2017-10-23T15:53:48.209Z,9.44
2017-10-23T15:56:14.459Z,9.32
2017-10-23T15:58:40.563Z,9.30
2017-10-23T16:01:06.661Z,9.40
2017-10-23T16:03:32.810Z,9.29
2017-10-23T16:05:58.943Z,9.34
2017-10-23T16:08:24.985Z,9.09
2017-10-23T16:10:51.134Z,9.25
2017-10-23T16:13:17.211Z,9.17
2017-10-23T16:15:43.268Z,9.19
2017-10-23T16:18:09.378Z,9.12
2017-10-23T16:20:35.479Z,9.22
2017-10-23T16:23:01.613Z,9.26
2017-10-23T16:25:27.655Z,9.19
2017-10-23T16:27:53.772Z,9.22
2017-10-23T16:30:20.855Z,9.17
2017-10-23T16:32:46.923Z,9.00
2017-10-23T16:35:13.047Z,9.07
2017-10-23T16:37:39.190Z,9.15
2017-10-23T16:40:05.294Z,9.09
2017-10-23T16:42:31.412Z,9.09
2017-10-23T16:44:57.507Z,8.90
2017-10-23T16:47:23.617Z,9.09
2017-10-23T16:49:49.748Z,9.13
2017-10-23T16:52:15.813Z,9.13
2017-10-23T16:54:41.981Z,9.08
2017-10-23T16:57:08.054Z,9.01
2017-10-23T16:59:34.164Z,9.18
2017-10-23T17:02:00.342Z,9.19
2017-10-23T17:04:26.459Z,9.18
2017-10-23T17:06:52.581Z,9.12
2017-10-23T17:09:18.679Z,9.10
2017-10-23T17:11:44.825Z,9.10
2017-10-23T17:14:10.946Z,9.06
2017-10-23T17:16:37.049Z,9.07
2017-10-23T17:19:03.172Z,9.05
2017-10-23T17:21:29.256Z,9.07
2017-10-23T17:23:55.516Z,9.04
2017-10-23T17:26:21.666Z,9.04
2017-10-23T17:28:47.784Z,9.00
2017-10-23T17:31:13.908Z,9.00
2017-10-23T17:33:40.001Z,9.00
2017-10-23T17:36:06.198Z,8.95
2017-10-23T17:38:32.259Z,9.02
2017-10-23T17:40:58.354Z,8.97
2017-10-23T17:43:24.546Z,8.95
2017-10-23T17:45:50.694Z,9.01
2017-10-23T17:48:16.859Z,8.98
2017-10-23T17:50:42.947Z,8.89
2017-10-23T17:53:09.051Z,8.88
2017-10-23T17:55:35.244Z,8.86
2017-10-23T17:58:01.346Z,8.87
2017-10-23T18:00:27.551Z,8.85
2017-10-23T18:02:53.667Z,8.85
2017-10-23T18:05:19.784Z,8.87
2017-10-23T18:07:45.881Z,8.85
2017-10-23T18:10:12.018Z,8.81
2017-10-23T18:12:38.232Z,8.86
2017-10-23T18:15:04.307Z,8.85
2017-10-23T18:17:30.359Z,8.84
2017-10-23T18:19:56.519Z,8.81
2017-10-23T18:22:22.681Z,8.82
2017-10-23T18:24:48.827Z,8.82
2017-10-23T18:27:15.028Z,8.74
2017-10-23T18:29:41.168Z,8.74
2017-10-23T18:32:07.334Z,8.69
2017-10-23T18:34:33.391Z,8.66
2017-10-23T18:36:59.570Z,8.67
2017-10-23T18:39:25.683Z,8.65
2017-10-23T18:41:51.799Z,8.70
2017-10-23T18:44:17.976Z,8.69
2017-10-23T18:46:44.190Z,8.74
2017-10-23T18:49:10.490Z,8.76
2017-10-23T18:51:36.742Z,8.67
2017-10-23T18:54:03.067Z,8.72
2017-10-23T18:56:29.311Z,8.70
2017-10-23T18:58:55.615Z,8.70
2017-10-23T19:01:21.810Z,8.73
2017-10-23T19:03:47.931Z,8.77
2017-10-23T19:06:14.170Z,8.74
2017-10-23T19:08:40.413Z,8.69
2017-10-23T19:11:07.532Z,8.63
2017-10-23T19:13:33.851Z,8.68
2017-10-23T19:16:00.233Z,8.69
2017-10-23T19:18:27.215Z,8.71
2017-10-23T19:20:53.554Z,8.73
2017-10-23T19:23:19.904Z,8.75
2017-10-23T19:25:46.191Z,8.67
2017-10-23T19:28:12.438Z,8.72
2017-10-23T19:30:38.762Z,8.70
2017-10-23T19:33:05.024Z,8.70
2017-10-23T19:35:31.292Z,8.68
2017-10-23T19:37:57.524Z,8.70
2017-10-23T19:40:23.770Z,8.69
2017-10-23T19:42:50.030Z,8.64
2017-10-23T19:45:16.274Z,8.67
2017-10-23T19:47:42.470Z,8.69
2017-10-23T19:50:08.589Z,8.73
2017-10-23T19:52:34.849Z,8.75
2017-10-23T19:55:01.009Z,8.76
2017-10-23T19:57:27.236Z,8.74
2017-10-23T19:59:53.359Z,8.76
2017-10-23T20:02:19.586Z,8.73
2017-10-23T20:04:45.738Z,8.71
2017-10-23T20:07:11.885Z,8.67
2017-10-23T20:09:38.043Z,8.72
2017-10-23T20:12:04.270Z,8.71
2017-10-23T20:14:30.444Z,8.68
2017-10-23T20:16:56.670Z,8.72
2017-10-23T20:19:22.795Z,8.73
2017-10-23T20:21:48.922Z,8.71
2017-10-23T20:24:15.046Z,8.70
2017-10-23T20:26:41.218Z,8.72
2017-10-23T20:29:07.322Z,8.72
2017-10-23T20:31:33.403Z,8.73
2017-10-23T20:33:59.502Z,8.71
2017-10-23T20:36:25.620Z,8.77
2017-10-23T20:38:51.743Z,8.76
2017-10-23T20:41:17.846Z,8.75
2017-10-23T20:43:43.995Z,8.72
2017-10-23T20:46:10.111Z,8.78
2017-10-23T20:48:36.221Z,8.83
2017-10-23T20:51:02.323Z,8.83
2017-10-23T20:53:28.436Z,8.86
2017-10-23T20:55:54.527Z,8.83
2017-10-23T20:58:20.700Z,8.89
2017-10-23T21:00:46.780Z,8.89
2017-10-23T21:03:13.015Z,8.91
2017-10-23T21:05:39.110Z,8.91
2017-10-23T21:08:05.198Z,8.88
2017-10-23T21:10:32.088Z,8.95
2017-10-23T21:12:58.183Z,8.94
2017-10-23T21:15:24.331Z,8.89
2017-10-23T21:17:50.512Z,8.90
2017-10-23T21:20:16.608Z,8.88
2017-10-23T21:22:42.717Z,8.87
2017-10-23T21:25:08.759Z,8.81
2017-10-23T21:27:34.879Z,8.80
2017-10-23T21:30:00.955Z,8.82
2017-10-23T21:32:27.054Z,8.82
2017-10-23T21:34:53.175Z,8.80
2017-10-23T21:37:19.550Z,8.77
2017-10-23T21:39:45.623Z,8.80
2017-10-23T21:42:11.750Z,8.78
2017-10-23T21:44:37.796Z,8.78
2017-10-23T21:47:09.566Z,8.76
2017-10-23T21:49:35.659Z,8.77
2017-10-23T21:52:01.750Z,8.72
2017-10-23T21:54:27.838Z,8.76
2017-10-23T21:56:53.946Z,8.76
2017-10-23T21:59:20.037Z,8.74
2017-10-23T22:01:46.067Z,8.77
2017-10-23T22:04:12.127Z,8.78
2017-10-23T22:06:38.263Z,8.77
2017-10-23T22:09:04.539Z,8.79
2017-10-23T22:11:30.651Z,8.82
2017-10-23T22:13:56.918Z,8.84
2017-10-23T22:16:23.015Z,8.83
2017-10-23T22:18:49.111Z,8.86
2017-10-23T22:21:15.267Z,8.89
2017-10-23T22:23:41.376Z,8.89
2017-10-23T22:26:07.479Z,8.88
2017-10-23T22:28:33.539Z,8.92
2017-10-23T22:30:59.642Z,8.92
2017-10-23T22:33:25.790Z,8.97
2017-10-23T22:35:51.898Z,8.99
2017-10-23T22:38:17.963Z,8.96
2017-10-23T22:40:44.013Z,8.94
2017-10-23T22:43:10.071Z,8.94
2017-10-23T22:45:36.180Z,8.96
2017-10-23T22:48:02.323Z,8.95
2017-10-23T22:50:28.370Z,8.99
2017-10-23T22:52:54.467Z,8.98
2017-10-23T22:55:20.499Z,9.00
2017-10-23T22:57:46.607Z,8.99
2017-10-23T23:00:12.711Z,8.95
2017-10-23T23:02:38.860Z,8.94
2017-10-23T23:05:04.983Z,8.94
2017-10-23T23:07:31.115Z,8.90
2017-10-23T23:09:57.238Z,8.94
2017-10-23T23:12:23.334Z,8.96
2017-10-23T23:14:49.350Z,8.95
2017-10-23T23:17:15.431Z,9.01
2017-10-23T23:19:41.539Z,9.01
2017-10-23T23:22:07.592Z,8.99
2017-10-23T23:24:33.714Z,8.96
2017-10-23T23:26:59.788Z,8.95
2017-10-23T23:29:25.861Z,8.95
2017-10-23T23:31:51.952Z,8.94
2017-10-23T23:34:18.033Z,8.94
2017-10-23T23:36:44.145Z,8.95
2017-10-23T23:39:10.175Z,9.00
2017-10-23T23:41:36.219Z,9.00
2017-10-23T23:44:02.455Z,8.95
2017-10-23T23:46:28.537Z,8.96
2017-10-23T23:48:54.825Z,8.96
2017-10-23T23:51:20.903Z,9.00
2017-10-23T23:53:46.983Z,9.01
2017-10-23T23:56:13.117Z,9.02
2017-10-23T23:58:39.195Z,8.98
